Time;durP1;ratioP1;P1;durP2;ratioP2;P2;SDS_P1;SDS_P2;PMS_P1;PMS_P2;Temp;Humidity;BMP_temperature;BMP_pressure;BME280_temperature;BME280_humidity;BME280_pressure;Samples;Min_cycle;Max_cycle;Signal;HPM_P1;HPM_P2
2022/04/21 00:01:04;;;;;;;36.43;20.00;;;;;;;8.84;100.00;100125.03;10459698;28;20231;-68
2022/04/21 00:06:09;;;;;;;39.27;20.63;;;;;;;8.80;100.00;100130.25;10459586;28;20228;-68
2022/04/21 00:11:12;;;;;;;33.83;19.37;;;;;;;8.86;100.00;100128.47;10459927;28;20235;-66
2022/04/21 00:16:15;;;;;;;37.57;19.47;;;;;;;8.87;100.00;100125.00;10458859;28;20233;-66
2022/04/21 00:21:20;;;;;;;36.93;20.17;;;;;;;8.86;100.00;100119.84;10459050;28;20248;-69
2022/04/21 00:26:23;;;;;;;38.83;19.90;;;;;;;8.74;100.00;100115.63;10458609;28;20220;-71
2022/04/21 00:31:27;;;;;;;33.43;19.00;;;;;;;8.79;100.00;100119.03;10107175;28;10000058;-71
2022/04/21 00:36:32;;;;;;;34.53;18.20;;;;;;;8.88;100.00;100111.22;10455501;28;20217;-72
2022/04/21 00:41:35;;;;;;;35.00;18.27;;;;;;;8.90;100.00;100112.06;10458686;28;20220;-72
2022/04/21 00:46:39;;;;;;;32.03;16.80;;;;;;;8.96;100.00;100108.56;10455415;28;20234;-70
2022/04/21 00:51:44;;;;;;;38.17;18.63;;;;;;;8.99;100.00;100105.97;10455125;28;20430;-68
2022/04/21 00:56:49;;;;;;;32.20;16.90;;;;;;;9.03;100.00;100110.22;10456311;28;20277;-69
2022/04/21 01:07:26;;;;;;;39.93;18.70;;;;;;;9.02;100.00;100106.81;10386805;28;20237;-72
2022/04/21 01:12:31;;;;;;;38.80;19.63;;;;;;;9.00;100.00;100111.13;10463194;28;20224;-73
2022/04/21 01:17:36;;;;;;;36.43;16.57;;;;;;;9.03;100.00;100116.25;10467593;28;20220;-74
2022/04/21 01:22:41;;;;;;;32.60;17.60;;;;;;;9.01;100.00;100111.97;10465733;28;20273;-71
2022/04/21 01:27:46;;;;;;;33.30;17.47;;;;;;;9.08;100.00;100105.88;10449310;28;20251;-71
2022/04/21 01:32:49;;;;;;;31.97;17.20;;;;;;;9.08;100.00;100103.28;10465334;28;20670;-70
2022/04/21 01:43:15;;;;;;;34.27;16.57;;;;;;;9.12;100.00;100089.44;10464857;28;20235;-69
2022/04/21 01:48:18;;;;;;;29.53;14.53;;;;;;;9.11;100.00;100086.00;10464804;28;20217;-72
2022/04/21 01:53:24;;;;;;;26.10;14.57;;;;;;;9.12;100.00;100081.69;10465372;28;20676;-71
2022/04/21 01:58:27;;;;;;;26.87;13.27;;;;;;;9.09;100.00;100077.38;10464333;28;20223;-71
2022/04/21 02:03:32;;;;;;;23.73;13.43;;;;;;;9.16;100.00;100070.44;10464083;28;20303;-74
2022/04/21 02:08:37;;;;;;;25.23;14.33;;;;;;;9.15;100.00;100064.38;10463280;28;20212;-73
2022/04/21 02:13:40;;;;;;;23.87;12.67;;;;;;;9.11;100.00;100064.44;10463788;28;20233;-73
2022/04/21 02:18:43;;;;;;;18.30;10.53;;;;;;;9.14;100.00;100054.06;10463625;28;20672;-72
2022/04/21 02:23:48;;;;;;;19.70;10.97;;;;;;;9.13;100.00;100050.59;10464439;28;20299;-71
2022/04/21 02:28:51;;;;;;;19.73;10.80;;;;;;;9.13;100.00;100053.19;10463094;28;20217;-72
2022/04/21 02:33:54;;;;;;;16.07;9.80;;;;;;;9.14;100.00;100047.16;10462873;28;20217;-70
2022/04/21 02:38:59;;;;;;;17.73;10.03;;;;;;;9.14;100.00;100044.56;10462930;28;20223;-68
2022/04/21 02:44:02;;;;;;;21.00;11.67;;;;;;;9.17;100.00;100038.47;10462444;28;20793;-71
2022/04/21 02:49:06;;;;;;;14.87;9.60;;;;;;;9.13;100.00;100040.25;10462232;28;20231;-69
2022/04/21 02:59:32;;;;;;;15.30;9.30;;;;;;;9.09;100.00;100037.72;10463231;28;20228;-69
2022/04/21 03:04:36;;;;;;;14.77;8.20;;;;;;;9.10;100.00;100037.69;10461876;28;20217;-72
2022/04/21 03:09:41;;;;;;;14.90;8.20;;;;;;;9.12;100.00;100037.66;10461580;28;20236;-69
2022/04/21 03:14:44;;;;;;;13.30;8.00;;;;;;;9.10;100.00;100040.28;10461386;28;20572;-72
2022/04/21 03:19:48;;;;;;;14.00;8.07;;;;;;;9.14;100.00;100038.50;10461040;28;20708;-71
2022/04/21 03:24:52;;;;;;;13.53;8.40;;;;;;;9.16;100.00;100039.38;10461212;28;20227;-68
2022/04/21 03:29:56;;;;;;;13.67;7.73;;;;;;;9.14;100.00;100036.78;10461800;28;20647;-69
2022/04/21 03:35:00;;;;;;;12.30;7.20;;;;;;;9.19;100.00;100044.50;10460697;28;20217;-68
2022/04/21 03:40:06;;;;;;;13.70;7.90;;;;;;;9.17;100.00;100039.34;10460303;28;20685;-72
2022/04/21 03:45:10;;;;;;;14.40;7.90;;;;;;;9.16;100.00;100035.03;10460352;28;20216;-75
2022/04/21 03:50:13;;;;;;;11.43;7.03;;;;;;;9.15;100.00;100040.22;10460113;28;20311;-73
2022/04/21 03:55:18;;;;;;;14.30;8.50;;;;;;;9.17;100.00;100041.94;10460017;28;20554;-70
2022/04/21 04:00:21;;;;;;;12.03;8.07;;;;;;;9.15;100.00;100041.09;10459572;28;20224;-70
2022/04/21 04:05:24;;;;;;;13.37;8.70;;;;;;;9.14;100.00;100041.97;10460336;28;20223;-68
2022/04/21 04:15:51;;;;;;;12.87;8.40;;;;;;;9.15;100.00;100041.09;10459104;28;20242;-73
2022/04/21 04:20:54;;;;;;;13.33;8.27;;;;;;;9.17;100.00;100054.88;10459063;28;20563;-71
2022/04/21 04:25:59;;;;;;;14.00;8.70;;;;;;;9.17;100.00;100060.06;10459189;28;20300;-72
2022/04/21 04:31:02;;;;;;;14.97;8.27;;;;;;;9.19;100.00;100068.69;10458982;28;20239;-70
2022/04/21 04:36:07;;;;;;;14.10;8.90;;;;;;;9.20;100.00;100067.78;10459734;28;20225;-72
2022/04/21 04:46:38;;;;;;;12.80;7.67;;;;;;;9.25;100.00;100075.50;10458750;28;20544;-70
2022/04/21 04:51:42;;;;;;;15.80;8.63;;;;;;;9.29;100.00;100074.63;10458601;28;20224;-70
2022/04/21 04:56:48;;;;;;;13.07;8.47;;;;;;;9.32;100.00;100072.84;10458660;28;20217;-73
2022/04/21 05:01:51;;;;;;;12.57;7.30;;;;;;;9.28;100.00;100072.91;10459376;28;20552;-69
2022/04/21 05:06:57;;;;;;;14.30;7.60;;;;;;;9.29;100.00;100080.66;10458051;28;20533;-75
2022/04/21 05:12:02;;;;;;;14.47;7.57;;;;;;;9.31;100.00;100076.31;10460157;28;20656;-68
2022/04/21 05:17:05;;;;;;;12.27;7.17;;;;;;;9.28;100.00;100078.91;10458353;28;20251;-70
2022/04/21 05:22:13;;;;;;;11.83;7.70;;;;;;;9.30;100.00;100079.78;10458090;28;20304;-73
2022/04/21 05:27:18;;;;;;;12.80;8.23;;;;;;;9.30;100.00;100082.34;10456493;28;20647;-71
2022/04/21 05:32:27;;;;;;;11.53;7.27;;;;;;;9.30;100.00;100084.13;10454418;28;20232;-69
2022/04/21 05:37:32;;;;;;;11.37;6.70;;;;;;;9.31;100.00;100078.91;10454425;28;20532;-67
2022/04/21 05:42:42;;;;;;;12.60;7.70;;;;;;;9.34;100.00;100089.25;10105784;28;9999889;-67
2022/04/21 05:47:48;;;;;;;12.60;6.80;;;;;;;9.39;100.00;100093.53;10444076;28;20307;-70
2022/04/21 05:52:53;;;;;;;13.07;7.30;;;;;;;9.38;100.00;100079.72;10461262;28;20236;-69
2022/04/21 05:57:58;;;;;;;10.10;6.73;;;;;;;9.30;100.00;100086.72;10461038;28;20225;-69
2022/04/21 06:03:01;;;;;;;12.00;7.17;;;;;;;9.19;100.00;100093.69;10460879;28;20303;-69
2022/04/21 06:08:06;;;;;;;15.17;7.13;;;;;;;9.35;100.00;100078.00;10460652;28;20223;-70
2022/04/21 06:13:15;;;;;;;10.63;6.63;;;;;;;9.42;100.00;100083.13;10460358;28;20245;-66
2022/04/21 06:18:18;;;;;;;12.67;7.33;;;;;;;9.49;100.00;100088.22;10462432;28;20235;-74
2022/04/21 06:23:30;;;;;;;11.07;6.20;;;;;;;9.52;100.00;100087.34;10468392;28;20240;-65
2022/04/21 06:28:35;;;;;;;12.30;6.27;;;;;;;9.51;100.00;100090.81;10501287;28;20234;-63
2022/04/21 06:33:38;;;;;;;11.63;6.87;;;;;;;9.63;100.00;100090.69;10501182;28;20255;-63
2022/04/21 06:38:42;;;;;;;12.37;7.33;;;;;;;9.74;100.00;100083.63;10503128;28;20220;-68
2022/04/21 06:49:08;;;;;;;13.93;7.33;;;;;;;9.86;100.00;100088.69;10461505;28;20208;-72
2022/04/21 06:54:11;;;;;;;11.87;7.37;;;;;;;9.89;100.00;100089.50;10462454;28;20240;-75
2022/04/21 06:59:16;;;;;;;13.50;7.10;;;;;;;9.90;100.00;100085.19;10461411;28;20222;-70
2022/04/21 07:04:20;;;;;;;14.33;7.13;;;;;;;9.98;100.00;100096.31;10461868;28;20235;-71
2022/04/21 07:09:23;;;;;;;11.70;7.07;;;;;;;10.05;100.00;100095.38;10460291;28;20217;-70
2022/04/21 07:14:28;;;;;;;11.40;7.17;;;;;;;10.08;100.00;100108.28;10108904;28;10000351;-72
2022/04/21 07:19:34;;;;;;;11.87;6.70;;;;;;;10.15;100.00;100107.38;10473921;28;20378;-70
2022/04/21 07:24:38;;;;;;;9.63;5.97;;;;;;;10.19;100.00;100107.31;10458083;28;20687;-70
2022/04/21 07:29:47;;;;;;;11.03;6.13;;;;;;;10.15;100.00;100107.38;10458284;28;20215;-70
2022/04/21 07:34:50;;;;;;;12.37;7.40;;;;;;;10.06;100.00;100107.47;10457195;28;20221;-69
2022/04/21 07:39:54;;;;;;;9.70;6.47;;;;;;;10.10;100.00;100109.16;10457267;28;20573;-73
2022/04/21 07:45:01;;;;;;;10.03;6.20;;;;;;;10.17;100.00;100103.88;10457126;28;20224;-72
2022/04/21 07:50:05;;;;;;;10.90;6.40;;;;;;;10.23;100.00;100110.75;10456616;28;20240;-73
2022/04/21 07:55:10;;;;;;;11.67;6.60;;;;;;;10.24;100.00;100110.72;10456783;28;20225;-71
2022/04/21 08:00:16;;;;;;;9.93;6.37;;;;;;;10.35;100.00;100103.63;10457742;28;20577;-70
2022/04/21 08:05:21;;;;;;;9.77;6.60;;;;;;;10.48;100.00;100100.00;10456314;28;20183;-70
2022/04/21 08:10:27;;;;;;;9.53;6.57;;;;;;;10.64;100.00;100098.06;10455145;28;20206;-70
2022/04/21 08:15:33;;;;;;;9.67;6.03;;;;;;;10.69;100.00;100095.38;10455515;28;20233;-70
2022/04/21 08:20:39;;;;;;;10.63;6.60;;;;;;;10.83;100.00;100094.31;10456483;28;20201;-70
2022/04/21 08:36:35;;;;;;;9.73;6.00;;;;;;;11.00;100.00;100092.31;10455274;28;20212;-68
2022/04/21 08:41:47;;;;;;;9.67;6.00;;;;;;;11.17;100.00;100074.69;10455285;28;20235;-72
2022/04/21 08:46:52;;;;;;;9.57;6.03;;;;;;;11.36;100.00;100072.63;10456389;28;20672;-70
2022/04/21 08:51:57;;;;;;;11.53;5.93;;;;;;;11.53;100.00;100066.25;10454939;28;20285;-70
2022/04/21 08:57:00;;;;;;;10.73;6.17;;;;;;;11.54;100.00;100070.53;10455456;28;20217;-70
2022/04/21 09:02:05;;;;;;;10.10;6.10;;;;;;;11.82;100.00;100073.50;10455175;28;20217;-70
2022/04/21 09:07:15;;;;;;;8.77;5.23;;;;;;;11.95;100.00;100067.19;10455892;28;20213;-69
2022/04/21 09:12:20;;;;;;;9.17;5.73;;;;;;;12.00;100.00;100054.94;10454736;28;20228;-70
2022/04/21 09:17:25;;;;;;;9.13;5.00;;;;;;;12.08;100.00;100054.78;10454807;28;20242;-69
2022/04/21 09:22:34;;;;;;;9.50;5.23;;;;;;;11.98;100.00;100050.66;10462422;28;20200;-72
2022/04/21 09:27:40;;;;;;;8.40;4.87;;;;;;;11.90;100.00;100053.44;10462562;28;20296;-71
2022/04/21 09:32:51;;;;;;;7.73;5.00;;;;;;;11.83;100.00;100045.75;10461953;28;20224;-71
2022/04/21 09:37:56;;;;;;;9.93;4.97;;;;;;;11.85;100.00;100046.59;10463860;28;20196;-72
2022/04/21 09:43:01;;;;;;;8.97;5.27;;;;;;;11.86;100.00;100046.56;10461734;28;20219;-68
2022/04/21 09:48:05;;;;;;;8.40;4.90;;;;;;;11.85;100.00;100044.88;10461519;28;20201;-72
2022/04/21 09:53:09;;;;;;;10.20;4.87;;;;;;;11.82;100.00;100044.91;10461645;28;20278;-71
2022/04/21 09:58:13;;;;;;;8.53;5.07;;;;;;;11.92;100.00;100051.66;10461918;28;20284;-72
2022/04/21 10:03:20;;;;;;;10.87;5.17;;;;;;;11.91;100.00;100043.88;10461231;28;20192;-69
2022/04/21 10:08:24;;;;;;;8.87;4.47;;;;;;;11.87;100.00;100039.63;10462537;28;20203;-71
2022/04/21 10:13:29;;;;;;;9.07;5.43;;;;;;;11.92;100.00;100045.59;10460416;28;20657;-68
2022/04/21 10:18:34;;;;;;;9.83;5.20;;;;;;;12.10;100.00;100050.38;10460287;28;20203;-69
2022/04/21 10:23:43;;;;;;;9.30;4.70;;;;;;;12.16;100.00;100047.66;10459990;28;20900;-65
2022/04/21 10:28:50;;;;;;;9.37;5.60;;;;;;;12.21;100.00;100049.28;10460183;28;20193;-66
2022/04/21 10:33:56;;;;;;;11.27;4.73;;;;;;;12.29;100.00;100038.69;10458818;28;20295;-67
2022/04/21 10:39:13;;;;;;;8.37;4.80;;;;;;;12.42;100.00;100047.97;10459624;28;20291;-67
2022/04/21 10:44:17;;;;;;;10.63;4.83;;;;;;;12.57;100.00;100045.00;10459751;28;20207;-65
2022/04/21 10:49:55;;;;;;;7.67;4.47;;;;;;;12.66;100.00;100043.06;10458639;28;20196;-68
2022/04/21 11:00:43;;;;;;;9.53;4.60;;;;;;;12.84;100.00;100036.53;10456027;28;20373;-73
2022/04/21 11:06:05;;;;;;;7.97;4.57;;;;;;;12.98;100.00;100034.44;10460457;28;20217;-70
2022/04/21 11:11:08;;;;;;;7.13;4.33;;;;;;;13.34;100.00;100037.91;10461824;28;20243;-69
2022/04/21 11:16:11;;;;;;;8.10;4.30;;;;;;;13.52;99.80;100033.03;10460903;28;20286;-68
2022/04/21 11:21:23;;;;;;;10.07;4.37;;;;;;;13.57;98.73;100031.16;10460563;28;20221;-69
2022/04/21 11:26:28;;;;;;;7.43;4.13;;;;;;;13.74;99.66;100034.16;10460710;28;20220;-69
2022/04/21 11:31:31;;;;;;;9.47;4.63;;;;;;;13.65;96.09;100037.00;10460544;28;20605;-69
2022/04/21 11:36:40;;;;;;;8.57;4.90;;;;;;;13.53;95.93;100037.34;10460366;28;20652;-67
2022/04/21 11:41:44;;;;;;;9.73;5.30;;;;;;;13.47;98.27;100027.09;10459861;28;20213;-69
2022/04/21 11:46:48;;;;;;;8.53;4.80;;;;;;;13.50;94.11;100027.00;10459982;28;20213;-62
2022/04/21 11:51:54;;;;;;;8.53;5.13;;;;;;;13.35;93.10;100023.97;10459766;28;20221;-62
2022/04/21 11:56:57;;;;;;;8.53;4.93;;;;;;;13.34;93.08;100023.09;10459933;28;20299;-64
2022/04/21 12:07:19;;;;;;;9.70;4.33;;;;;;;13.33;91.77;100025.75;10437418;28;20700;-67
2022/04/21 12:12:23;;;;;;;8.43;4.73;;;;;;;13.41;92.51;100026.38;10459071;28;20235;-66
2022/04/21 12:17:33;;;;;;;9.57;4.97;;;;;;;13.36;91.09;100034.34;10459300;28;20221;-64
2022/04/21 12:22:40;;;;;;;9.50;4.70;;;;;;;13.44;92.59;100016.72;10459150;28;20239;-63
2022/04/21 12:27:44;;;;;;;10.57;4.60;;;;;;;13.67;91.41;100016.97;10458871;28;20296;-61
2022/04/21 12:32:49;;;;;;;9.77;4.60;;;;;;;13.90;90.97;100019.78;10458684;28;20659;-66
2022/04/21 12:38:50;;;;;;;10.07;5.23;;;;;;;14.01;91.34;100029.91;10459351;28;20620;-63
2022/04/21 12:43:26;;;;;;;9.80;5.20;;;;;;;14.00;90.39;100022.09;10458559;28;20225;-63
2022/04/21 12:48:29;;;;;;;9.93;4.47;;;;;;;13.93;89.95;100024.03;10459488;28;20308;-62
2022/04/21 12:53:36;;;;;;;14.02;10.13;;;;;;;13.87;87.92;100027.69;10457413;28;20434;-67
2022/04/21 12:58:39;;;;;;;10.67;4.67;;;;;;;13.85;88.86;100032.09;10466543;28;20648;-69
2022/04/21 13:03:43;;;;;;;7.97;4.90;;;;;;;13.93;90.31;100038.88;10466570;28;20229;-68
2022/04/21 13:08:48;;;;;;;9.43;4.73;;;;;;;14.02;90.48;100044.66;10448847;28;20246;-68
2022/04/21 13:13:53;;;;;;;10.33;5.27;;;;;;;14.05;88.32;100041.13;10465757;28;20282;-68
2022/04/21 13:18:57;;;;;;;7.40;4.53;;;;;;;14.12;88.82;100037.41;10466498;28;20225;-72
2022/04/21 13:24:01;;;;;;;9.27;4.27;;;;;;;14.16;88.06;100052.06;10465811;28;20207;-72
2022/04/21 13:29:06;;;;;;;9.97;5.10;;;;;;;14.16;86.89;100046.84;10465522;28;20535;-68
2022/04/21 13:34:10;;;;;;;9.37;4.70;;;;;;;14.05;87.93;100056.78;10465178;28;20221;-67
2022/04/21 13:39:15;;;;;;;7.47;4.87;;;;;;;14.06;91.20;100053.25;10465073;28;20227;-69
2022/04/21 13:44:18;;;;;;;11.63;4.87;;;;;;;14.05;89.45;100055.00;10465281;28;20201;-74
2022/04/21 13:49:42;;;;;;;10.97;5.20;;;;;;;14.06;90.46;100058.47;10465222;28;20224;-71
2022/04/21 13:54:48;;;;;;;9.13;4.90;;;;;;;13.95;86.98;100056.16;10464266;28;20308;-68
2022/04/21 13:59:51;;;;;;;7.67;4.73;;;;;;;13.87;84.14;100056.38;10464186;28;20224;-65
2022/04/21 14:04:54;;;;;;;9.80;6.00;;;;;;;13.87;84.55;100053.75;10462326;28;20193;-71
2022/04/21 14:09:59;;;;;;;9.87;5.40;;;;;;;13.85;85.80;100052.97;10463780;28;20265;-70
2022/04/21 14:15:02;;;;;;;7.97;4.23;;;;;;;13.82;86.42;100050.44;10463316;28;20251;-69
2022/04/21 14:20:06;;;;;;;10.13;5.00;;;;;;;13.96;86.80;100060.47;10464002;28;20222;-70
2022/04/21 14:25:11;;;;;;;8.07;4.60;;;;;;;13.99;88.23;100056.94;10461066;28;20193;-70
2022/04/21 14:30:15;;;;;;;13.17;5.63;;;;;;;13.78;84.53;100056.66;10461957;28;20193;-70
2022/04/21 14:35:18;;;;;;;10.07;5.20;;;;;;;13.78;88.22;100061.88;10460877;28;20234;-67
2022/04/21 14:45:44;;;;;;;6.90;4.60;;;;;;;13.51;88.89;100069.59;10457896;28;20215;-68
2022/04/21 14:50:47;;;;;;;57.00;33.13;;;;;;;13.50;86.94;100075.69;10462867;28;20203;-67
2022/04/21 14:55:52;;;;;;;11.20;6.50;;;;;;;13.35;90.43;100069.13;10461775;28;20221;-66
2022/04/21 15:00:55;;;;;;;12.90;5.73;;;;;;;13.35;89.33;100076.09;10461542;28;20285;-67
2022/04/21 15:05:59;;;;;;;10.73;5.27;;;;;;;13.22;92.21;100077.31;10460650;28;20284;-67
2022/04/21 15:11:04;;;;;;;11.20;5.30;;;;;;;13.14;92.46;100069.69;10461328;28;20185;-64
2022/04/21 15:16:08;;;;;;;9.63;5.20;;;;;;;13.12;93.22;100075.81;10460852;28;20259;-65
2022/04/21 15:21:12;;;;;;;10.83;6.17;;;;;;;13.02;95.09;100075.19;10461143;28;20253;-66
2022/04/21 15:26:17;;;;;;;12.00;6.93;;;;;;;12.96;95.57;100072.69;10460515;28;20511;-64
2022/04/21 15:31:23;;;;;;;11.63;5.50;;;;;;;12.90;96.97;100077.19;10460200;28;20260;-65
2022/04/21 15:36:26;;;;;;;10.73;6.03;;;;;;;12.89;95.84;100080.72;10460162;28;20216;-67
2022/04/21 15:41:31;;;;;;;17.67;8.67;;;;;;;12.84;98.05;100091.22;10459511;28;20590;-66
2022/04/21 15:46:37;;;;;;;11.57;6.27;;;;;;;12.76;96.28;100090.56;10459053;28;20259;-65
2022/04/21 15:51:43;;;;;;;10.57;6.30;;;;;;;12.68;97.05;100089.88;10460446;28;20544;-64
2022/04/21 16:02:08;;;;;;;9.93;5.77;;;;;;;12.57;98.74;100100.53;10458576;28;20395;-65
2022/04/21 16:07:11;;;;;;;12.47;6.10;;;;;;;12.54;93.89;100108.44;10458878;28;20214;-62
2022/04/21 16:12:17;;;;;;;10.00;5.40;;;;;;;12.55;88.54;100109.25;10458979;28;20561;-60
2022/04/21 16:17:26;;;;;;;11.47;4.93;;;;;;;12.51;87.38;100105.88;10458625;28;20308;-62
2022/04/21 16:22:30;;;;;;;8.33;4.13;;;;;;;12.37;89.81;100120.09;10458846;28;20193;-62
2022/04/21 16:27:34;;;;;;;16.63;7.87;;;;;;;12.32;86.77;100117.56;10458679;28;20217;-63
2022/04/21 16:32:38;;;;;;;9.73;5.77;;;;;;;12.35;87.83;100127.94;10458366;28;20213;-62
2022/04/21 16:37:41;;;;;;;7.40;3.93;;;;;;;12.33;86.12;100128.84;10458400;28;20224;-62
2022/04/21 16:42:49;;;;;;;8.70;4.23;;;;;;;12.31;83.35;100134.06;10458304;28;20213;-64
2022/04/21 16:47:52;;;;;;;8.87;3.60;;;;;;;12.30;82.45;100134.97;10458376;28;20231;-66
2022/04/21 16:52:56;;;;;;;8.17;3.93;;;;;;;12.27;82.59;100142.00;10458077;28;20295;-66
2022/04/21 16:58:00;;;;;;;9.83;4.50;;;;;;;12.17;83.60;100140.44;10459359;28;20720;-63
2022/04/21 17:03:05;;;;;;;9.37;4.30;;;;;;;12.09;85.16;100145.81;10457626;28;20616;-62
2022/04/21 17:08:09;;;;;;;6.93;4.00;;;;;;;12.08;84.42;100161.44;10457684;28;20582;-63
2022/04/21 17:13:13;;;;;;;59.17;31.00;;;;;;;12.02;88.15;100151.16;10457615;28;20249;-63
2022/04/21 17:18:23;;;;;;;10.27;5.43;;;;;;;11.97;89.71;100158.19;10457237;28;20225;-65
2022/04/21 17:23:26;;;;;;;9.07;4.30;;;;;;;11.97;90.48;100169.44;10457418;28;20216;-67
2022/04/21 17:28:31;;;;;;;9.17;4.07;;;;;;;11.91;88.48;100173.91;10458672;28;20224;-65
2022/04/21 17:33:35;;;;;;;7.43;3.93;;;;;;;11.85;91.98;100174.88;10457375;28;20720;-65
2022/04/21 17:38:39;;;;;;;9.37;3.97;;;;;;;11.77;90.77;100183.72;10457222;28;20312;-62
2022/04/21 17:43:44;;;;;;;7.67;4.63;;;;;;;11.73;92.51;100174.22;10447669;28;20307;-68
2022/04/21 17:48:47;;;;;;;10.43;4.83;;;;;;;11.69;93.63;100191.63;10464760;28;20213;-64
2022/04/21 17:53:52;;;;;;;9.37;5.37;;;;;;;11.60;92.69;100205.59;10464530;28;20228;-65
2022/04/21 17:58:57;;;;;;;10.23;4.57;;;;;;;11.56;92.39;100200.50;10464010;28;20291;-68
2022/04/21 18:04:00;;;;;;;7.20;4.10;;;;;;;11.46;90.56;100202.38;10464411;28;20668;-69
2022/04/21 18:09:05;;;;;;;7.67;3.77;;;;;;;11.50;90.07;100211.84;10463584;28;20240;-68
2022/04/21 18:14:10;;;;;;;12.50;6.07;;;;;;;11.54;91.50;100210.91;10463422;28;20256;-69
2022/04/21 18:19:13;;;;;;;8.93;4.87;;;;;;;11.50;93.40;100221.38;10463485;28;20220;-67
2022/04/21 18:24:16;;;;;;;10.33;4.20;;;;;;;11.48;91.22;100216.22;10481167;28;20349;-68
2022/04/21 18:29:21;;;;;;;8.30;3.90;;;;;;;11.41;93.84;100218.91;10466699;28;20209;-67
2022/04/21 18:34:24;;;;;;;7.80;4.13;;;;;;;11.37;92.52;100227.66;10462463;28;20540;-69
2022/04/21 18:39:28;;;;;;;9.20;4.27;;;;;;;11.33;91.60;100221.66;10458726;28;20229;-69
2022/04/21 18:44:32;;;;;;;14.20;4.90;;;;;;;11.34;93.81;100214.69;10460900;28;20678;-68
2022/04/21 18:49:35;;;;;;;7.83;4.23;;;;;;;11.38;91.95;100211.19;10503703;28;20220;-69
2022/04/21 18:54:39;;;;;;;6.70;3.73;;;;;;;11.24;95.49;100214.00;10502674;28;20314;-72
2022/04/21 18:59:44;;;;;;;7.50;3.83;;;;;;;11.26;92.86;100208.78;10503145;28;20223;-66
2022/04/21 19:04:48;;;;;;;9.23;4.63;;;;;;;11.24;93.31;100213.13;10503346;28;20303;-68
2022/04/21 19:10:04;;;;;;;7.30;4.07;;;;;;;11.16;94.07;100202.88;10502826;28;20212;-69
2022/04/21 19:20:42;;;;;;;9.50;4.50;;;;;;;11.06;98.03;100190.88;10235626;23;10002458;-69
2022/04/21 19:25:47;;;;;;;7.70;4.73;;;;;;;10.98;99.93;100202.25;10215581;29;20560;-70
2022/04/21 19:30:52;;;;;;;13.33;4.70;;;;;;;10.91;100.00;100198.91;10214660;29;20217;-69
2022/04/21 19:35:57;;;;;;;10.40;5.03;;;;;;;10.83;100.00;100192.97;10214429;29;20255;-69
2022/04/21 19:41:02;;;;;;;9.07;5.00;;;;;;;10.78;100.00;100191.31;10214249;29;20303;-71
2022/04/21 19:46:05;;;;;;;7.83;4.27;;;;;;;10.67;100.00;100188.84;10214364;29;20224;-68
2022/04/21 19:51:10;;;;;;;9.23;4.77;;;;;;;10.54;100.00;100187.31;10214214;29;20688;-68
2022/04/21 19:56:14;;;;;;;9.33;5.13;;;;;;;10.39;100.00;100185.75;10214969;29;20224;-68
2022/04/21 20:01:18;;;;;;;12.23;4.90;;;;;;;10.32;100.00;100185.81;10213358;29;20251;-68
2022/04/21 20:12:04;;;;;;;12.97;5.07;;;;;;;10.01;100.00;100179.25;10250261;29;20307;-68
2022/04/21 20:17:07;;;;;;;11.67;5.23;;;;;;;9.96;100.00;100186.19;10250431;29;20388;-68
2022/04/21 20:22:16;;;;;;;9.20;4.83;;;;;;;9.91;100.00;100185.38;10250679;29;20244;-69
2022/04/21 20:27:20;;;;;;;7.67;4.93;;;;;;;9.89;100.00;100176.75;10250224;29;20550;-67
2022/04/21 20:32:25;;;;;;;14.63;6.43;;;;;;;9.88;100.00;100177.66;10251105;29;20238;-68
2022/04/21 20:37:31;;;;;;;9.47;4.80;;;;;;;9.84;100.00;100173.38;10250862;29;20231;-68
2022/04/21 20:42:34;;;;;;;11.73;5.20;;;;;;;9.83;100.00;100175.13;10250027;29;20224;-68
2022/04/21 20:47:38;;;;;;;11.80;5.57;;;;;;;9.86;100.00;100179.41;10251272;29;20739;-69
2022/04/21 20:52:45;;;;;;;11.27;5.33;;;;;;;9.91;100.00;100175.88;10250161;29;20701;-66
2022/04/21 20:57:50;;;;;;;10.83;5.93;;;;;;;9.95;100.00;100168.94;10249440;29;20255;-68
2022/04/21 21:02:54;;;;;;;11.63;6.23;;;;;;;10.01;100.00;100171.47;10249612;29;20715;-68
2022/04/21 21:07:59;;;;;;;14.20;5.77;;;;;;;9.95;100.00;100172.41;10218498;29;20548;-70
2022/04/21 21:13:03;;;;;;;11.70;6.97;;;;;;;9.97;100.00;100164.59;10210941;29;20625;-69
2022/04/21 21:18:06;;;;;;;14.73;7.20;;;;;;;9.95;100.00;100171.53;10216201;29;20746;-68
2022/04/21 21:23:11;;;;;;;12.03;6.63;;;;;;;9.93;100.00;100162.91;10217833;29;20254;-68
2022/04/21 21:28:14;;;;;;;13.27;6.73;;;;;;;9.91;100.00;100162.06;10216908;29;20217;-68
2022/04/21 21:33:18;;;;;;;17.10;7.17;;;;;;;9.90;100.00;100163.81;10216833;29;20604;-70
2022/04/21 21:38:22;;;;;;;12.30;7.33;;;;;;;9.92;100.00;100166.38;10217207;29;20668;-67
2022/04/21 21:43:26;;;;;;;21.90;8.30;;;;;;;9.97;100.00;100168.06;10216163;29;20785;-68
2022/04/21 21:53:51;;;;;;;14.13;7.93;;;;;;;10.03;100.00;100177.47;10216875;29;20225;-69
2022/04/21 21:58:55;;;;;;;12.20;8.37;;;;;;;10.06;100.00;100177.47;10216980;29;20237;-67
2022/04/21 22:04:00;;;;;;;15.37;8.10;;;;;;;10.08;100.00;100173.09;10215739;29;20220;-68
2022/04/21 22:09:05;;;;;;;18.27;8.53;;;;;;;10.11;100.00;100173.13;10216449;29;20232;-69
2022/04/21 22:14:08;;;;;;;15.97;8.70;;;;;;;10.05;100.00;100163.66;10215419;29;20224;-68
2022/04/21 22:19:13;;;;;;;18.40;9.23;;;;;;;10.06;100.00;100167.09;10215876;29;20220;-66
2022/04/21 22:24:18;;;;;;;20.43;9.60;;;;;;;10.04;100.00;100166.25;10216604;29;20232;-68
2022/04/21 22:29:21;;;;;;;16.40;9.27;;;;;;;10.08;100.00;100167.91;10215273;29;20248;-66
2022/04/21 22:34:44;;;;;;;17.30;9.00;;;;;;;10.08;100.00;100161.03;10214784;29;20212;-67
2022/04/21 22:39:49;;;;;;;17.07;9.33;;;;;;;10.05;100.00;100158.47;10215164;29;20239;-68
2022/04/21 22:44:54;;;;;;;16.50;8.73;;;;;;;10.07;100.00;100163.63;10214414;29;20217;-69
2022/04/21 22:49:59;;;;;;;19.33;9.27;;;;;;;10.04;100.00;100166.25;10213533;29;20580;-67
2022/04/21 22:55:05;;;;;;;14.47;7.87;;;;;;;10.04;100.00;100155.88;10215433;29;20287;-67
2022/04/21 23:00:09;;;;;;;20.63;8.87;;;;;;;9.99;100.00;100161.09;10213411;29;20290;-69
2022/04/21 23:05:12;;;;;;;19.87;9.63;;;;;;;10.05;100.00;100161.06;10215478;29;20308;-69
2022/04/21 23:15:38;;;;;;;18.00;10.13;;;;;;;10.04;100.00;100155.88;10212801;29;20224;-67
2022/04/21 23:20:41;;;;;;;22.17;10.07;;;;;;;10.05;100.00;100162.78;10212826;29;20780;-66
2022/04/21 23:25:47;;;;;;;18.33;10.37;;;;;;;10.08;100.00;100166.22;10213376;29;20314;-67
2022/04/21 23:30:51;;;;;;;20.20;10.03;;;;;;;10.09;100.00;100172.28;10212598;29;20676;-67
2022/04/21 23:35:55;;;;;;;15.93;9.13;;;;;;;10.08;100.00;100168.81;10212009;29;20242;-69
2022/04/21 23:41:01;;;;;;;16.33;9.10;;;;;;;10.04;100.00;100168.84;10213911;29;20258;-66
2022/04/21 23:46:04;;;;;;;17.90;8.93;;;;;;;10.07;100.00;100176.59;10212295;29;20229;-67
2022/04/21 23:51:08;;;;;;;18.00;8.53;;;;;;;10.00;100.00;100174.94;10212138;29;20853;-67
2022/04/21 23:56:12;;;;;;;20.83;9.00;;;;;;;10.05;100.00;100173.16;10212564;29;20232;-68
